Time;durP1;ratioP1;P1;durP2;ratioP2;P2;SDS_P1;SDS_P2;PMS_P1;PMS_P2;Temp;Humidity;BMP_temperature;BMP_pressure;BME280_temperature;BME280_humidity;BME280_pressure;Samples;Min_cycle;Max_cycle;Signal;HPM_P1;HPM_P2
2022/06/24 00:00:45;;;;;;;;;;;21.10;99.90;;;;;;5031748;28;19917;-74
2022/06/24 00:03:15;;;;;;;;;;;20.90;99.90;;;;;;5033723;28;20386;-73
2022/06/24 00:05:41;;;;;;;;;;;20.90;99.90;;;;;;5030335;28;19936;-73
2022/06/24 00:08:06;;;;;;;;;;;20.80;99.90;;;;;;5031489;28;20347;-73
2022/06/24 00:10:33;;;;;;;;;;;20.70;99.90;;;;;;5031648;28;19956;-73
2022/06/24 00:12:59;;;;;;;;;;;20.70;99.90;;;;;;5031477;28;19921;-73
2022/06/24 00:15:25;;;;;;;;;;;20.70;99.90;;;;;;5032599;28;19923;-73
2022/06/24 00:17:51;;;;;;;;;;;20.70;99.90;;;;;;5031773;28;19917;-73
2022/06/24 00:20:17;;;;;;;;;;;20.70;99.90;;;;;;5032564;28;19925;-73
2022/06/24 00:22:44;;;;;;;;;;;20.60;99.90;;;;;;5034249;28;20004;-73
2022/06/24 00:25:10;;;;;;;;;;;20.50;99.90;;;;;;5048782;28;19917;-73
2022/06/24 00:27:36;;;;;;;;;;;20.60;99.90;;;;;;5031888;28;19924;-73
2022/06/24 00:30:09;;;;;;;;;;;20.40;99.90;;;;;;5016180;28;19948;-73
2022/06/24 00:32:34;;;;;;;;;;;20.40;99.90;;;;;;5031719;28;19928;-73
2022/06/24 00:35:04;;;;;;;;;;;20.30;99.90;;;;;;5032316;28;19917;-73
2022/06/24 00:37:31;;;;;;;;;;;20.20;99.90;;;;;;5014839;28;19921;-73
2022/06/24 00:40:01;;;;;;;;;;;20.20;99.90;;;;;;5031735;28;20436;-73
2022/06/24 00:42:27;;;;;;;;;;;20.10;99.90;;;;;;5027813;28;19972;-73
2022/06/24 00:44:56;;;;;;;;;;;20.10;99.90;;;;;;5026519;28;19925;-73
2022/06/24 00:47:22;;;;;;;;;;;20.00;99.90;;;;;;5028602;28;19917;-73
2022/06/24 00:49:48;;;;;;;;;;;20.00;99.90;;;;;;5030331;28;19928;-73
2022/06/24 00:52:15;;;;;;;;;;;19.90;99.90;;;;;;5015412;28;19921;-73
2022/06/24 00:54:42;;;;;;;;;;;19.90;99.90;;;;;;5027700;28;19917;-73
2022/06/24 00:57:08;;;;;;;;;;;19.90;99.90;;;;;;5033916;28;20361;-72
2022/06/24 00:59:35;;;;;;;;;;;19.90;99.90;;;;;;5031380;28;19947;-71
2022/06/24 01:02:04;;;;;;;;;;;19.90;99.90;;;;;;5030312;28;19943;-72
2022/06/24 01:04:30;;;;;;;;;;;19.90;99.90;;;;;;5030519;28;19917;-72
2022/06/24 01:06:56;;;;;;;;;;;19.90;99.90;;;;;;5028717;28;20433;-73
2022/06/24 01:09:22;;;;;;;;;;;19.90;99.90;;;;;;5030624;28;19968;-73
2022/06/24 01:11:48;;;;;;;;;;;19.90;99.90;;;;;;5034565;28;19955;-73
2022/06/24 01:14:13;;;;;;;;;;;19.80;99.90;;;;;;5028948;28;19917;-73
2022/06/24 01:16:39;;;;;;;;;;;19.80;99.90;;;;;;5032370;28;19917;-73
2022/06/24 01:19:14;;;;;;;;;;;19.90;99.90;;;;;;5027577;28;19917;-73
2022/06/24 01:21:40;;;;;;;;;;;19.80;99.90;;;;;;5030020;28;20371;-73
2022/06/24 01:24:11;;;;;;;;;;;19.80;99.90;;;;;;5029520;28;20295;-73
2022/06/24 01:26:39;;;;;;;;;;;19.70;99.90;;;;;;5031978;28;19917;-73
2022/06/24 01:29:05;;;;;;;;;;;19.70;99.90;;;;;;5027578;28;20405;-73
2022/06/24 01:31:31;;;;;;;;;;;19.70;99.90;;;;;;5029011;28;19924;-73
2022/06/24 01:33:57;;;;;;;;;;;19.60;99.90;;;;;;5031394;28;19924;-73
2022/06/24 01:36:22;;;;;;;;;;;19.50;99.90;;;;;;5030193;28;19917;-73
2022/06/24 01:38:48;;;;;;;;;;;19.50;99.90;;;;;;5027822;28;20446;-73
2022/06/24 01:41:14;;;;;;;;;;;19.50;99.90;;;;;;5026452;28;19924;-73
2022/06/24 01:43:40;;;;;;;;;;;19.40;99.90;;;;;;5025667;28;19924;-73
2022/06/24 01:46:06;;;;;;;;;;;19.40;99.90;;;;;;5034876;28;19920;-73
2022/06/24 01:48:32;;;;;;;;;;;19.30;99.90;;;;;;5031626;28;20601;-73
2022/06/24 01:50:57;;;;;;;;;;;19.30;99.90;;;;;;5031861;28;20062;-73
2022/06/24 01:53:23;;;;;;;;;;;19.30;99.90;;;;;;5031099;28;19924;-73
2022/06/24 01:55:49;;;;;;;;;;;19.30;99.90;;;;;;5029616;28;19921;-73
2022/06/24 01:58:14;;;;;;;;;;;19.30;99.90;;;;;;5024725;28;19928;-73
2022/06/24 02:00:40;;;;;;;;;;;19.30;99.90;;;;;;5030443;28;19971;-73
2022/06/24 02:03:06;;;;;;;;;;;19.30;99.90;;;;;;5035008;28;20378;-72
2022/06/24 02:05:31;;;;;;;;;;;19.30;99.90;;;;;;5029393;28;19924;-72
2022/06/24 02:07:57;;;;;;;;;;;19.40;99.90;;;;;;5030510;28;20020;-72
2022/06/24 02:15:56;;;;;;;;;;;19.40;99.90;;;;;;5023419;28;19952;-72
2022/06/24 02:18:23;;;;;;;;;;;19.40;99.90;;;;;;5011865;28;20278;-73
2022/06/24 02:20:49;;;;;;;;;;;19.40;99.90;;;;;;5032966;28;19932;-73
2022/06/24 02:23:15;;;;;;;;;;;19.50;99.90;;;;;;5025002;28;20019;-73
2022/06/24 02:25:41;;;;;;;;;;;19.50;99.90;;;;;;5028163;28;20295;-73
2022/06/24 02:28:07;;;;;;;;;;;19.60;99.90;;;;;;5021008;28;19917;-73
2022/06/24 02:30:32;;;;;;;;;;;19.60;99.90;;;;;;5012309;28;19916;-73
2022/06/24 02:32:58;;;;;;;;;;;19.70;99.90;;;;;;5028335;28;20360;-73
2022/06/24 02:35:23;;;;;;;;;;;19.80;99.90;;;;;;5029551;28;19923;-73
2022/06/24 02:37:49;;;;;;;;;;;19.80;99.90;;;;;;5028321;28;20000;-73
2022/06/24 02:42:59;;;;;;;;;;;19.80;99.90;;;;;;5030117;28;19939;-73
2022/06/24 02:45:25;;;;;;;;;;;19.80;99.90;;;;;;5033580;28;19917;-73
2022/06/24 02:47:50;;;;;;;;;;;19.70;99.90;;;;;;5030080;28;20394;-73
2022/06/24 02:50:16;;;;;;;;;;;19.80;99.90;;;;;;5029345;28;19932;-73
2022/06/24 02:52:41;;;;;;;;;;;19.70;99.90;;;;;;5027596;28;19925;-73
2022/06/24 02:55:07;;;;;;;;;;;19.70;99.90;;;;;;5028203;28;19921;-73
2022/06/24 02:57:33;;;;;;;;;;;19.80;99.90;;;;;;5029377;28;20355;-72
2022/06/24 02:59:58;;;;;;;;;;;19.70;99.90;;;;;;5026819;28;20367;-72
2022/06/24 03:02:24;;;;;;;;;;;19.70;99.90;;;;;;5012688;28;19925;-72
2022/06/24 03:04:49;;;;;;;;;;;19.70;99.90;;;;;;5028875;28;19923;-72
2022/06/24 03:07:15;;;;;;;;;;;19.70;99.90;;;;;;5026078;28;19921;-72
2022/06/24 03:09:41;;;;;;;;;;;19.60;99.90;;;;;;5028456;28;20272;-72
2022/06/24 03:12:06;;;;;;;;;;;19.60;99.90;;;;;;5029701;28;19921;-73
2022/06/24 03:14:32;;;;;;;;;;;19.70;99.90;;;;;;5029945;28;20375;-73
2022/06/24 03:16:58;;;;;;;;;;;19.70;99.90;;;;;;5011860;28;20883;-73
2022/06/24 03:19:23;;;;;;;;;;;19.70;99.90;;;;;;5028025;28;19979;-73
2022/06/24 03:21:49;;;;;;;;;;;19.70;99.90;;;;;;5029998;28;19999;-73
2022/06/24 03:24:15;;;;;;;;;;;19.70;99.90;;;;;;5028215;28;19999;-73
2022/06/24 03:26:40;;;;;;;;;;;19.70;99.90;;;;;;5033696;28;20445;-73
2022/06/24 03:29:06;;;;;;;;;;;19.60;99.90;;;;;;5032536;28;19917;-73
2022/06/24 03:31:31;;;;;;;;;;;19.60;99.90;;;;;;5033440;28;19921;-73
2022/06/24 03:33:58;;;;;;;;;;;19.60;99.90;;;;;;5032281;28;20343;-72
2022/06/24 03:36:24;;;;;;;;;;;19.60;99.90;;;;;;5033280;28;19917;-72
2022/06/24 03:38:50;;;;;;;;;;;19.60;99.90;;;;;;5030884;28;19956;-72
2022/06/24 03:41:16;;;;;;;;;;;19.60;99.90;;;;;;5029752;28;19972;-72
2022/06/24 03:43:41;;;;;;;;;;;19.50;99.90;;;;;;5033320;28;20366;-73
2022/06/24 03:46:07;;;;;;;;;;;19.60;99.90;;;;;;5032887;28;20402;-73
2022/06/24 03:48:33;;;;;;;;;;;19.60;99.90;;;;;;5031598;28;20387;-72
2022/06/24 03:50:58;;;;;;;;;;;19.60;99.90;;;;;;5032595;28;19944;-73
2022/06/24 03:53:24;;;;;;;;;;;19.50;99.90;;;;;;5032136;28;20386;-73
2022/06/24 03:55:50;;;;;;;;;;;19.50;99.90;;;;;;5020621;28;20379;-71
2022/06/24 03:58:16;;;;;;;;;;;19.50;99.90;;;;;;5031533;28;20410;-72
2022/06/24 04:00:42;;;;;;;;;;;19.50;99.90;;;;;;5029766;28;19940;-72
2022/06/24 04:03:08;;;;;;;;;;;19.40;99.90;;;;;;5033101;28;20355;-72
2022/06/24 04:05:33;;;;;;;;;;;19.50;99.90;;;;;;5031970;28;19917;-72
2022/06/24 04:07:59;;;;;;;;;;;19.40;99.90;;;;;;5032399;28;19917;-72
2022/06/24 04:10:25;;;;;;;;;;;19.40;99.90;;;;;;5031516;28;20016;-72
2022/06/24 04:12:51;;;;;;;;;;;19.40;99.90;;;;;;5029804;28;19921;-72
2022/06/24 04:15:17;;;;;;;;;;;19.40;99.90;;;;;;5029250;28;20299;-72
2022/06/24 04:17:44;;;;;;;;;;;19.40;99.90;;;;;;5033189;28;20351;-72
2022/06/24 04:20:10;;;;;;;;;;;19.50;99.90;;;;;;5035577;28;19929;-72
2022/06/24 04:22:36;;;;;;;;;;;19.50;99.90;;;;;;5032595;28;20003;-72
2022/06/24 04:25:02;;;;;;;;;;;19.50;99.90;;;;;;5030709;28;19917;-72
2022/06/24 04:27:28;;;;;;;;;;;19.80;99.90;;;;;;5027795;28;19925;-72
2022/06/24 04:29:57;;;;;;;;;;;20.00;99.90;;;;;;5029941;28;19924;-72
2022/06/24 04:32:23;;;;;;;;;;;20.10;99.90;;;;;;5029030;28;20276;-72
2022/06/24 04:35:08;;;;;;;;;;;20.20;99.90;;;;;;5031554;28;19917;-72
2022/06/24 04:37:54;;;;;;;;;;;20.30;99.90;;;;;;5026982;28;20008;-73
2022/06/24 04:40:40;;;;;;;;;;;20.30;99.90;;;;;;5025547;28;19917;-72
2022/06/24 04:43:25;;;;;;;;;;;20.40;99.90;;;;;;5024506;28;19917;-72
2022/06/24 04:45:51;;;;;;;;;;;20.40;99.90;;;;;;5025894;28;19939;-73
2022/06/24 04:48:17;;;;;;;;;;;20.50;99.90;;;;;;5028302;28;19956;-73
2022/06/24 04:50:43;;;;;;;;;;;20.60;99.90;;;;;;5031323;28;20352;-74
2022/06/24 04:53:08;;;;;;;;;;;20.60;99.90;;;;;;5034645;28;19952;-73
2022/06/24 04:55:34;;;;;;;;;;;20.60;99.90;;;;;;5030079;28;19960;-72
2022/06/24 04:58:00;;;;;;;;;;;20.60;99.90;;;;;;5030039;28;20314;-73
2022/06/24 05:00:25;;;;;;;;;;;20.70;99.90;;;;;;5028665;28;19925;-74
2022/06/24 05:02:51;;;;;;;;;;;20.70;99.90;;;;;;5047480;28;19925;-73
2022/06/24 05:05:17;;;;;;;;;;;20.80;99.90;;;;;;5012976;28;20264;-73
2022/06/24 05:07:42;;;;;;;;;;;20.80;99.90;;;;;;5013464;28;20382;-73
2022/06/24 05:10:08;;;;;;;;;;;20.80;99.90;;;;;;5028327;28;19943;-73
2022/06/24 05:12:34;;;;;;;;;;;20.80;99.90;;;;;;5027076;28;20387;-73
2022/06/24 05:15:00;;;;;;;;;;;20.90;99.90;;;;;;5026736;28;20417;-72
2022/06/24 05:17:26;;;;;;;;;;;20.90;99.90;;;;;;5027342;28;20375;-73
2022/06/24 05:19:52;;;;;;;;;;;20.90;99.90;;;;;;5027918;28;19917;-74
2022/06/24 05:22:18;;;;;;;;;;;20.90;99.90;;;;;;5026472;28;19925;-74
2022/06/24 05:24:43;;;;;;;;;;;20.90;99.90;;;;;;5023412;28;20394;-72
2022/06/24 05:27:09;;;;;;;;;;;20.90;99.90;;;;;;5010579;28;20402;-72
2022/06/24 05:29:35;;;;;;;;;;;20.90;99.90;;;;;;5028232;28;20639;-72
2022/06/24 05:32:00;;;;;;;;;;;21.00;99.90;;;;;;5025921;28;20397;-73
2022/06/24 05:34:26;;;;;;;;;;;21.00;99.90;;;;;;5012917;28;19916;-73
2022/06/24 05:36:51;;;;;;;;;;;21.00;99.90;;;;;;5031348;28;20457;-72
2022/06/24 05:39:17;;;;;;;;;;;21.00;99.90;;;;;;5027735;28;20291;-73
2022/06/24 05:41:43;;;;;;;;;;;20.90;99.90;;;;;;5023773;28;19917;-72
2022/06/24 05:44:09;;;;;;;;;;;20.80;99.90;;;;;;5026341;28;20375;-73
2022/06/24 05:46:35;;;;;;;;;;;20.70;99.90;;;;;;5027055;28;19917;-73
2022/06/24 05:49:00;;;;;;;;;;;20.70;99.90;;;;;;5029413;28;19916;-74
2022/06/24 05:51:26;;;;;;;;;;;20.60;99.90;;;;;;5030161;28;20330;-73
2022/06/24 05:56:36;;;;;;;;;;;20.60;99.90;;;;;;5028313;28;19925;-72
2022/06/24 05:59:03;;;;;;;;;;;20.70;99.90;;;;;;5025128;28;20283;-73
2022/06/24 06:01:29;;;;;;;;;;;20.70;99.90;;;;;;5028838;28;19917;-72
2022/06/24 06:03:54;;;;;;;;;;;20.80;99.90;;;;;;5023249;28;19924;-72
2022/06/24 06:06:20;;;;;;;;;;;20.80;99.90;;;;;;5024159;28;20271;-72
2022/06/24 06:08:45;;;;;;;;;;;20.90;99.90;;;;;;5025782;28;20004;-72
2022/06/24 06:11:11;;;;;;;;;;;20.90;99.90;;;;;;5023664;28;20359;-72
2022/06/24 06:13:38;;;;;;;;;;;21.00;99.90;;;;;;5012550;28;20000;-72
2022/06/24 06:16:03;;;;;;;;;;;21.00;99.90;;;;;;5027555;28;20335;-72
2022/06/24 06:18:29;;;;;;;;;;;21.20;99.90;;;;;;5031839;28;19920;-72
2022/06/24 06:20:58;;;;;;;;;;;21.20;99.90;;;;;;5029353;28;20361;-72
2022/06/24 06:23:24;;;;;;;;;;;21.20;99.90;;;;;;5022359;28;19924;-72
2022/06/24 06:25:50;;;;;;;;;;;21.10;99.90;;;;;;5025383;28;19917;-72
2022/06/24 06:28:15;;;;;;;;;;;21.10;99.90;;;;;;5030596;28;19921;-72
2022/06/24 06:30:41;;;;;;;;;;;21.10;99.90;;;;;;5026634;28;19917;-72
2022/06/24 06:33:06;;;;;;;;;;;21.10;99.90;;;;;;5030291;28;19920;-72
2022/06/24 06:35:32;;;;;;;;;;;21.10;99.90;;;;;;5027256;28;19924;-73
2022/06/24 06:37:57;;;;;;;;;;;21.10;99.90;;;;;;5027512;28;19925;-72
2022/06/24 06:40:24;;;;;;;;;;;21.20;99.90;;;;;;5026028;28;19929;-71
2022/06/24 06:42:53;;;;;;;;;;;21.20;99.90;;;;;;5026835;28;19960;-73
2022/06/24 06:45:19;;;;;;;;;;;21.20;99.90;;;;;;5029325;28;20015;-72
2022/06/24 06:47:45;;;;;;;;;;;21.20;99.90;;;;;;5029783;28;19925;-72
2022/06/24 06:50:10;;;;;;;;;;;21.20;99.90;;;;;;5027784;28;19967;-72
2022/06/24 06:52:36;;;;;;;;;;;21.20;99.90;;;;;;5011771;28;19925;-72
2022/06/24 06:55:02;;;;;;;;;;;21.20;99.90;;;;;;5007586;28;19924;-72
2022/06/24 06:57:27;;;;;;;;;;;21.30;99.90;;;;;;5026382;28;19929;-72
2022/06/24 06:59:53;;;;;;;;;;;21.30;99.90;;;;;;5028708;28;19917;-72
2022/06/24 07:02:18;;;;;;;;;;;21.20;99.90;;;;;;5029673;28;19924;-72
2022/06/24 07:04:44;;;;;;;;;;;21.20;99.90;;;;;;5029758;28;20402;-72
2022/06/24 07:07:10;;;;;;;;;;;21.30;99.90;;;;;;5021387;28;19974;-72
2022/06/24 07:09:35;;;;;;;;;;;21.20;99.90;;;;;;5010623;28;19917;-71
2022/06/24 07:12:01;;;;;;;;;;;21.20;99.90;;;;;;5028155;28;19932;-72
2022/06/24 07:14:26;;;;;;;;;;;21.20;99.90;;;;;;5026574;28;20330;-72
2022/06/24 07:16:52;;;;;;;;;;;21.10;99.90;;;;;;4991220;28;19925;-72
2022/06/24 07:19:18;;;;;;;;;;;21.10;99.90;;;;;;5025900;28;20394;-72
2022/06/24 07:21:43;;;;;;;;;;;21.00;99.90;;;;;;5011628;28;19946;-73
2022/06/24 07:24:09;;;;;;;;;;;20.90;99.90;;;;;;5026445;28;19928;-72
2022/06/24 07:26:34;;;;;;;;;;;20.80;99.90;;;;;;5034381;28;19927;-73
2022/06/24 07:29:00;;;;;;;;;;;20.90;99.90;;;;;;5025899;28;19917;-72
2022/06/24 07:31:25;;;;;;;;;;;20.90;99.90;;;;;;5024123;28;20008;-72
2022/06/24 07:33:51;;;;;;;;;;;20.90;99.90;;;;;;5026737;28;19975;-73
2022/06/24 07:36:17;;;;;;;;;;;21.00;99.90;;;;;;5027412;28;19921;-72
2022/06/24 07:38:43;;;;;;;;;;;21.00;99.90;;;;;;5012705;28;19917;-73
2022/06/24 07:41:09;;;;;;;;;;;21.00;99.90;;;;;;5027288;28;19923;-73
2022/06/24 07:43:36;;;;;;;;;;;21.00;99.90;;;;;;5034676;28;20024;-73
2022/06/24 07:46:01;;;;;;;;;;;21.00;99.90;;;;;;5026620;28;19999;-73
2022/06/24 07:48:27;;;;;;;;;;;21.00;99.90;;;;;;5026735;28;20011;-73
2022/06/24 07:50:52;;;;;;;;;;;21.10;99.90;;;;;;5027740;28;19917;-73
2022/06/24 07:53:19;;;;;;;;;;;21.10;99.90;;;;;;5013451;28;20278;-73
2022/06/24 07:58:31;;;;;;;;;;;21.10;99.90;;;;;;5069664;22;19917;-71
2022/06/24 08:00:56;;;;;;;;;;;21.10;99.90;;;;;;4996834;28;20356;-72
2022/06/24 08:03:23;;;;;;;;;;;21.10;99.90;;;;;;5029458;28;20375;-72
2022/06/24 08:05:48;;;;;;;;;;;21.00;99.90;;;;;;5020980;28;19924;-72
2022/06/24 08:08:14;;;;;;;;;;;21.00;99.90;;;;;;5009991;28;19917;-72
2022/06/24 08:10:39;;;;;;;;;;;20.90;99.90;;;;;;5006263;28;20337;-73
2022/06/24 08:13:05;;;;;;;;;;;20.80;99.90;;;;;;5004209;28;19943;-72
2022/06/24 08:15:30;;;;;;;;;;;20.70;99.90;;;;;;5006537;28;19921;-73
2022/06/24 08:17:56;;;;;;;;;;;20.60;99.90;;;;;;5002326;28;19921;-72
2022/06/24 08:20:22;;;;;;;;;;;20.60;99.90;;;;;;5009889;28;19925;-75
2022/06/24 08:22:47;;;;;;;;;;;20.60;99.90;;;;;;5011224;28;19917;-76
2022/06/24 08:25:13;;;;;;;;;;;20.50;99.90;;;;;;5010344;28;19924;-75
2022/06/24 08:27:38;;;;;;;;;;;20.60;99.90;;;;;;5010327;28;19920;-75
2022/06/24 08:30:04;;;;;;;;;;;20.70;99.90;;;;;;5016870;28;20474;-75
2022/06/24 08:32:30;;;;;;;;;;;20.70;99.90;;;;;;5010344;28;20402;-75
2022/06/24 08:34:56;;;;;;;;;;;20.80;99.90;;;;;;4992202;28;19997;-75
2022/06/24 08:37:21;;;;;;;;;;;20.80;99.90;;;;;;5009084;28;20387;-74
2022/06/24 08:39:47;;;;;;;;;;;20.90;99.90;;;;;;5011986;28;19921;-72
2022/06/24 08:42:13;;;;;;;;;;;20.90;99.90;;;;;;4984780;28;20507;-73
2022/06/24 08:44:39;;;;;;;;;;;20.80;99.90;;;;;;5014269;28;19917;-72
2022/06/24 08:47:04;;;;;;;;;;;20.70;99.90;;;;;;5007171;28;20459;-72
2022/06/24 08:49:33;;;;;;;;;;;20.60;99.90;;;;;;5005130;28;20399;-72
2022/06/24 08:51:59;;;;;;;;;;;20.70;99.90;;;;;;5006840;28;19968;-72
2022/06/24 08:54:28;;;;;;;;;;;20.70;99.90;;;;;;5018499;28;20379;-72
2022/06/24 08:56:53;;;;;;;;;;;20.70;99.90;;;;;;5015940;28;19917;-72
2022/06/24 08:59:19;;;;;;;;;;;20.60;99.90;;;;;;5012411;28;20520;-72
2022/06/24 09:01:47;;;;;;;;;;;20.60;99.90;;;;;;5005463;28;20287;-72
2022/06/24 09:04:13;;;;;;;;;;;20.60;99.90;;;;;;5012116;28;19917;-72
2022/06/24 09:06:39;;;;;;;;;;;20.50;99.90;;;;;;5012587;28;20302;-73
2022/06/24 09:09:04;;;;;;;;;;;20.50;99.90;;;;;;5007499;28;19921;-73
2022/06/24 09:11:37;;;;;;;;;;;20.50;99.90;;;;;;5010944;28;19964;-73
2022/06/24 09:14:03;;;;;;;;;;;20.40;99.90;;;;;;5011038;28;19963;-73
2022/06/24 09:16:29;;;;;;;;;;;20.40;99.90;;;;;;5011443;28;19956;-73
2022/06/24 09:18:59;;;;;;;;;;;20.30;99.90;;;;;;5004758;28;19917;-73
2022/06/24 09:21:27;;;;;;;;;;;20.30;99.90;;;;;;5011171;28;19917;-73
2022/06/24 09:23:54;;;;;;;;;;;20.20;99.90;;;;;;5003838;28;19957;-74
2022/06/24 09:26:27;;;;;;;;;;;20.00;99.90;;;;;;5003751;28;19917;-74
2022/06/24 09:28:55;;;;;;;;;;;19.70;99.90;;;;;;5005294;28;19917;-72
2022/06/24 09:31:23;;;;;;;;;;;19.50;99.90;;;;;;5005337;28;19917;-73
2022/06/24 09:33:49;;;;;;;;;;;19.20;99.90;;;;;;5003855;28;19932;-73
2022/06/24 09:36:16;;;;;;;;;;;19.00;99.90;;;;;;5011307;28;19917;-73
2022/06/24 09:38:52;;;;;;;;;;;18.90;99.90;;;;;;5017828;28;19917;-72
2022/06/24 09:41:18;;;;;;;;;;;18.90;99.90;;;;;;5021898;28;19967;-72
2022/06/24 09:43:43;;;;;;;;;;;18.80;99.90;;;;;;5012898;28;19957;-72
2022/06/24 09:46:16;;;;;;;;;;;18.70;99.90;;;;;;4996238;28;19917;-72
2022/06/24 09:48:41;;;;;;;;;;;18.70;99.90;;;;;;5011794;28;19987;-71
2022/06/24 09:51:08;;;;;;;;;;;18.70;99.90;;;;;;5025284;28;20704;-71
2022/06/24 09:53:37;;;;;;;;;;;18.70;99.90;;;;;;4993597;28;20004;-72
2022/06/24 09:56:03;;;;;;;;;;;18.70;99.90;;;;;;5005809;28;20342;-72
2022/06/24 09:58:29;;;;;;;;;;;18.70;99.90;;;;;;4998967;28;19917;-72
2022/06/24 10:00:55;;;;;;;;;;;18.70;99.90;;;;;;4998767;28;19924;-72
2022/06/24 10:03:20;;;;;;;;;;;18.70;99.90;;;;;;5019030;28;19964;-73
2022/06/24 10:05:50;;;;;;;;;;;18.80;99.90;;;;;;5011917;28;20012;-72
2022/06/24 10:08:19;;;;;;;;;;;18.70;99.90;;;;;;5005188;28;19960;-72
2022/06/24 10:10:52;;;;;;;;;;;18.70;99.90;;;;;;5007886;28;19917;-72
2022/06/24 10:13:22;;;;;;;;;;;18.80;99.90;;;;;;5006687;28;19948;-72
2022/06/24 10:15:48;;;;;;;;;;;18.90;99.90;;;;;;5002463;28;19953;-72
2022/06/24 10:18:15;;;;;;;;;;;18.90;99.90;;;;;;4999955;28;20041;-72
2022/06/24 10:20:42;;;;;;;;;;;19.00;99.90;;;;;;5000600;28;20017;-72
2022/06/24 10:23:07;;;;;;;;;;;19.00;99.90;;;;;;5004504;28;19925;-73
2022/06/24 10:25:49;;;;;;;;;;;19.00;99.90;;;;;;4983379;28;19925;-72
2022/06/24 10:28:15;;;;;;;;;;;19.10;99.90;;;;;;5010590;28;19939;-72
2022/06/24 10:30:40;;;;;;;;;;;19.10;99.90;;;;;;5010598;28;19921;-72
2022/06/24 10:33:12;;;;;;;;;;;19.20;99.90;;;;;;4992210;28;19929;-73
2022/06/24 10:35:53;;;;;;;;;;;19.30;99.90;;;;;;5008789;28;20390;-73
2022/06/24 10:38:18;;;;;;;;;;;19.20;99.90;;;;;;4990366;28;19917;-73
2022/06/24 10:40:45;;;;;;;;;;;19.30;99.90;;;;;;5009600;28;20041;-74
2022/06/24 10:43:10;;;;;;;;;;;19.30;99.90;;;;;;5006379;28;19933;-74
2022/06/24 10:45:37;;;;;;;;;;;19.40;99.90;;;;;;5009031;28;19925;-74
2022/06/24 10:48:03;;;;;;;;;;;19.30;99.90;;;;;;5012313;28;19921;-74
2022/06/24 10:50:28;;;;;;;;;;;19.40;99.90;;;;;;5001660;28;19917;-75
2022/06/24 10:53:01;;;;;;;;;;;19.40;99.90;;;;;;5005693;28;19928;-75
2022/06/24 10:58:04;;;;;;;;;;;19.50;99.90;;;;;;5006690;28;20307;-74
2022/06/24 11:00:39;;;;;;;;;;;19.50;99.90;;;;;;5007512;28;19924;-75
2022/06/24 11:03:04;;;;;;;;;;;19.60;99.90;;;;;;5010304;28;19944;-75
2022/06/24 11:05:32;;;;;;;;;;;19.80;99.90;;;;;;5003928;28;19956;-75
2022/06/24 11:07:59;;;;;;;;;;;19.90;99.90;;;;;;5004108;28;19917;-76
2022/06/24 11:10:26;;;;;;;;;;;20.00;99.90;;;;;;5001949;28;19916;-76
2022/06/24 11:12:53;;;;;;;;;;;20.10;99.90;;;;;;5008197;28;19925;-75
2022/06/24 11:15:19;;;;;;;;;;;20.20;99.90;;;;;;5001646;28;20003;-75
2022/06/24 11:17:45;;;;;;;;;;;20.30;99.90;;;;;;5007879;28;19921;-76
2022/06/24 11:20:11;;;;;;;;;;;20.30;99.90;;;;;;5008212;28;19933;-76
2022/06/24 11:22:47;;;;;;;;;;;20.40;99.90;;;;;;4996802;28;19924;-76
2022/06/24 11:25:13;;;;;;;;;;;20.50;99.90;;;;;;5006780;28;19921;-76
2022/06/24 11:27:39;;;;;;;;;;;20.60;99.90;;;;;;4994118;28;20004;-76
2022/06/24 11:30:05;;;;;;;;;;;20.70;99.90;;;;;;5007451;28;20009;-76
2022/06/24 11:32:50;;;;;;;;;;;20.80;99.90;;;;;;5008041;28;19972;-75
2022/06/24 11:35:17;;;;;;;;;;;20.80;99.90;;;;;;4998081;28;20008;-76
2022/06/24 11:38:05;;;;;;;;;;;20.90;99.90;;;;;;5013990;28;19925;-76
2022/06/24 11:40:51;;;;;;;;;;;21.00;99.90;;;;;;5009707;28;19925;-76
2022/06/24 11:43:17;;;;;;;;;;;21.20;99.90;;;;;;5016137;28;19924;-76
2022/06/24 11:45:47;;;;;;;;;;;21.30;99.90;;;;;;5014991;28;19964;-76
2022/06/24 11:48:22;;;;;;;;;;;21.40;99.90;;;;;;5013337;28;20330;-76
2022/06/24 11:50:48;;;;;;;;;;;21.50;99.90;;;;;;5004063;28;19917;-75
2022/06/24 11:53:15;;;;;;;;;;;21.60;99.90;;;;;;5010065;28;19964;-76
2022/06/24 11:55:41;;;;;;;;;;;21.60;99.90;;;;;;5014872;28;19918;-76
2022/06/24 11:58:11;;;;;;;;;;;21.70;99.90;;;;;;5017580;28;19921;-75
2022/06/24 12:00:37;;;;;;;;;;;21.80;99.90;;;;;;5002703;28;19976;-75
2022/06/24 12:03:04;;;;;;;;;;;21.80;99.90;;;;;;5014935;28;19940;-75
2022/06/24 12:05:30;;;;;;;;;;;21.80;99.90;;;;;;5020892;28;19917;-75
2022/06/24 12:07:56;;;;;;;;;;;21.90;99.90;;;;;;5014097;28;19917;-76
2022/06/24 12:10:22;;;;;;;;;;;21.90;99.90;;;;;;5011391;28;20048;-76
2022/06/24 12:12:57;;;;;;;;;;;21.90;99.90;;;;;;5009259;28;19936;-76
2022/06/24 12:15:26;;;;;;;;;;;22.00;99.90;;;;;;5005057;28;19901;-75
2022/06/24 12:17:53;;;;;;;;;;;22.10;99.90;;;;;;5011705;28;19945;-75
2022/06/24 12:20:26;;;;;;;;;;;22.20;99.90;;;;;;5023225;28;20421;-75
2022/06/24 12:23:10;;;;;;;;;;;22.30;99.90;;;;;;5023663;28;20346;-75
2022/06/24 12:25:40;;;;;;;;;;;22.50;99.90;;;;;;5008515;28;19924;-75
2022/06/24 12:28:19;;;;;;;;;;;22.70;99.90;;;;;;4995142;28;19921;-75
2022/06/24 12:30:55;;;;;;;;;;;22.90;99.90;;;;;;5023472;28;19924;-75
2022/06/24 12:33:21;;;;;;;;;;;22.90;99.90;;;;;;5029439;28;19929;-75
2022/06/24 12:35:49;;;;;;;;;;;22.80;99.90;;;;;;5013001;28;19925;-76
2022/06/24 12:38:14;;;;;;;;;;;22.80;99.90;;;;;;5011503;28;19928;-76
2022/06/24 12:40:40;;;;;;;;;;;22.80;99.90;;;;;;5015184;28;20000;-76
2022/06/24 12:43:13;;;;;;;;;;;22.90;99.90;;;;;;5009803;28;19918;-76
2022/06/24 12:45:40;;;;;;;;;;;22.90;99.90;;;;;;5018239;28;20016;-76
2022/06/24 12:50:58;;;;;;;;;;;23.10;99.90;;;;;;5002554;28;19937;-76
2022/06/24 12:53:24;;;;;;;;;;;23.30;99.90;;;;;;5013845;28;19928;-76
2022/06/24 12:55:49;;;;;;;;;;;23.50;99.90;;;;;;5006684;28;19917;-76
2022/06/24 12:58:15;;;;;;;;;;;23.50;99.90;;;;;;5009282;28;20386;-77
2022/06/24 13:00:40;;;;;;;;;;;23.60;99.90;;;;;;5008555;28;19917;-77
2022/06/24 13:03:06;;;;;;;;;;;23.70;99.90;;;;;;5004815;28;19944;-76
2022/06/24 13:05:32;;;;;;;;;;;23.60;99.90;;;;;;5009499;28;19917;-76
2022/06/24 13:07:58;;;;;;;;;;;23.60;99.90;;;;;;5004723;28;19943;-75
2022/06/24 13:10:23;;;;;;;;;;;23.80;99.90;;;;;;5003220;28;20412;-75
2022/06/24 13:12:50;;;;;;;;;;;23.80;99.90;;;;;;5003825;28;19922;-74
2022/06/24 13:15:16;;;;;;;;;;;23.80;99.90;;;;;;5006269;28;19918;-75
2022/06/24 13:17:42;;;;;;;;;;;23.80;99.90;;;;;;4990963;28;19917;-74
2022/06/24 13:20:08;;;;;;;;;;;23.80;99.90;;;;;;5012579;28;19924;-74
2022/06/24 13:22:34;;;;;;;;;;;23.80;99.90;;;;;;5004916;28;19917;-74
2022/06/24 13:25:00;;;;;;;;;;;23.80;99.90;;;;;;5008601;28;19924;-74
2022/06/24 13:27:26;;;;;;;;;;;23.70;99.90;;;;;;5013975;28;19921;-74
2022/06/24 13:29:51;;;;;;;;;;;23.70;99.90;;;;;;4997897;28;19918;-74
2022/06/24 13:32:17;;;;;;;;;;;23.80;99.90;;;;;;4994849;28;19976;-74
2022/06/24 13:34:43;;;;;;;;;;;23.90;99.90;;;;;;5007746;28;20555;-74
2022/06/24 13:37:09;;;;;;;;;;;24.10;99.90;;;;;;4988988;28;20299;-74
2022/06/24 13:39:34;;;;;;;;;;;24.30;99.90;;;;;;5009853;28;19964;-74
2022/06/24 13:42:00;;;;;;;;;;;24.40;99.90;;;;;;5009208;28;19921;-74
2022/06/24 13:44:26;;;;;;;;;;;24.60;99.90;;;;;;5010781;28;19921;-74
2022/06/24 13:46:53;;;;;;;;;;;24.90;99.90;;;;;;5008661;28;19921;-74
2022/06/24 13:49:19;;;;;;;;;;;25.20;99.90;;;;;;5009653;28;20028;-74
2022/06/24 13:51:46;;;;;;;;;;;25.20;99.90;;;;;;5005701;28;19933;-74
2022/06/24 13:54:12;;;;;;;;;;;25.10;99.90;;;;;;5008435;28;19921;-74
2022/06/24 13:56:37;;;;;;;;;;;25.10;99.90;;;;;;5007374;28;20001;-74
2022/06/24 13:59:03;;;;;;;;;;;25.10;99.90;;;;;;5005268;28;19967;-73
2022/06/24 14:01:29;;;;;;;;;;;25.20;99.90;;;;;;5005390;28;20005;-74
2022/06/24 14:03:55;;;;;;;;;;;25.40;99.90;;;;;;5008393;28;19980;-75
2022/06/24 14:06:21;;;;;;;;;;;25.30;99.90;;;;;;5004434;28;19918;-74
2022/06/24 14:08:46;;;;;;;;;;;25.40;99.90;;;;;;5009374;28;19917;-74
2022/06/24 14:11:12;;;;;;;;;;;25.50;99.90;;;;;;5019442;28;20367;-74
2022/06/24 14:13:38;;;;;;;;;;;25.70;99.90;;;;;;5007806;28;19963;-74
2022/06/24 14:16:05;;;;;;;;;;;26.00;99.90;;;;;;5014476;28;19922;-74
2022/06/24 14:18:38;;;;;;;;;;;26.30;99.90;;;;;;5011558;28;19924;-74
2022/06/24 14:21:04;;;;;;;;;;;26.30;99.90;;;;;;5011310;28;19917;-73
2022/06/24 14:26:14;;;;;;;;;;;26.80;99.90;;;;;;5011260;28;19928;-74
2022/06/24 14:28:39;;;;;;;;;;;27.00;99.90;;;;;;5013694;28;19917;-74
2022/06/24 14:31:07;;;;;;;;;;;27.20;99.90;;;;;;5007643;28;19921;-74
2022/06/24 14:33:33;;;;;;;;;;;27.20;99.90;;;;;;5004964;28;19932;-74
2022/06/24 14:35:58;;;;;;;;;;;27.20;99.90;;;;;;5005250;28;19921;-73